Time;durP1;ratioP1;P1;durP2;ratioP2;P2;SDS_P1;SDS_P2;PMS_P1;PMS_P2;Temp;Humidity;BMP_temperature;BMP_pressure;BME280_temperature;BME280_humidity;BME280_pressure;Samples;Min_cycle;Max_cycle;Signal;HPM_P1;HPM_P2
2024/01/25 00:01:12;;;;;;;0.30;0.20;;;8.90;99.90;;;;;;5090873;28;20801;-79
2024/01/25 00:03:38;;;;;;;0.30;0.30;;;9.00;99.90;;;;;;5091094;28;20436;-80
2024/01/25 00:06:06;;;;;;;3.53;3.33;;;9.00;99.90;;;;;;5091039;28;20424;-79
2024/01/25 00:08:31;;;;;;;0.30;0.20;;;9.00;99.90;;;;;;5091015;28;20433;-80
2024/01/25 00:10:57;;;;;;;0.30;0.20;;;9.00;99.90;;;;;;5090844;28;20249;-79
2024/01/25 00:13:23;;;;;;;0.30;0.20;;;9.00;99.90;;;;;;5089474;28;20682;-80
2024/01/25 00:15:48;;;;;;;0.30;0.20;;;9.10;99.90;;;;;;5089867;28;20432;-80
2024/01/25 00:18:14;;;;;;;0.30;0.20;;;9.10;99.90;;;;;;5090503;28;20250;-80
2024/01/25 00:20:40;;;;;;;0.30;0.20;;;9.10;99.90;;;;;;5089806;28;20192;-79
2024/01/25 00:23:06;;;;;;;0.30;0.20;;;9.10;99.90;;;;;;5089318;28;20530;-79
2024/01/25 00:25:32;;;;;;;1.42;1.42;;;9.10;99.90;;;;;;5089797;28;20176;-79
2024/01/25 00:27:57;;;;;;;0.30;0.20;;;9.10;99.90;;;;;;5090700;28;20211;-82
2024/01/25 00:30:23;;;;;;;0.60;0.60;;;9.10;99.90;;;;;;5090695;28;20664;-80
2024/01/25 00:32:49;;;;;;;0.30;0.20;;;9.10;99.90;;;;;;5090636;28;20207;-80
2024/01/25 00:35:16;;;;;;;2.63;2.53;;;9.10;99.90;;;;;;5089163;28;20176;-80
2024/01/25 00:37:42;;;;;;;0.30;0.20;;;9.10;99.90;;;;;;5090409;28;20474;-79
2024/01/25 00:40:08;;;;;;;0.30;0.20;;;9.10;99.90;;;;;;5089869;28;20750;-80
2024/01/25 00:42:53;;;;;;;0.30;0.20;;;9.10;99.90;;;;;;5090256;28;20177;-80
2024/01/25 00:45:22;;;;;;;0.30;0.20;;;9.10;99.90;;;;;;5090442;28;20225;-79
2024/01/25 00:47:49;;;;;;;0.30;0.20;;;9.10;99.90;;;;;;5090313;28;20222;-79
2024/01/25 00:50:17;;;;;;;0.30;0.20;;;9.10;99.90;;;;;;5088999;28;20275;-80
2024/01/25 00:52:44;;;;;;;0.30;0.20;;;9.10;99.90;;;;;;5090526;28;20432;-79
2024/01/25 00:55:10;;;;;;;0.30;0.20;;;9.10;99.90;;;;;;5088895;28;20183;-79
2024/01/25 00:57:36;;;;;;;0.30;0.20;;;9.10;99.90;;;;;;5090256;28;20216;-79
2024/01/25 01:00:03;;;;;;;0.30;0.20;;;9.10;99.90;;;;;;5089698;28;20310;-80
2024/01/25 01:02:33;;;;;;;0.30;0.20;;;9.10;99.90;;;;;;5088993;28;20188;-80
2024/01/25 01:04:58;;;;;;;0.30;0.28;;;9.00;99.90;;;;;;5090270;28;20169;-80
2024/01/25 01:07:24;;;;;;;0.30;0.27;;;9.00;99.90;;;;;;5090066;28;20515;-80
2024/01/25 01:09:50;;;;;;;0.30;0.20;;;8.90;99.90;;;;;;5089594;28;20509;-78
2024/01/25 01:12:16;;;;;;;0.30;0.20;;;8.90;99.90;;;;;;5089137;28;20322;-80
2024/01/25 01:14:42;;;;;;;0.30;0.20;;;8.90;99.90;;;;;;5090022;28;20673;-80
2024/01/25 01:17:08;;;;;;;0.30;0.20;;;8.90;99.90;;;;;;5088409;28;20176;-79
2024/01/25 01:19:33;;;;;;;0.30;0.20;;;8.90;99.90;;;;;;5089195;28;20483;-80
2024/01/25 01:21:59;;;;;;;0.30;0.20;;;8.90;99.90;;;;;;5088325;28;20180;-79
2024/01/25 01:24:25;;;;;;;0.30;0.20;;;8.80;99.90;;;;;;5088245;28;20200;-79
2024/01/25 01:26:50;;;;;;;0.30;0.20;;;8.90;99.90;;;;;;5090142;28;20649;-79
2024/01/25 01:29:16;;;;;;;0.30;0.20;;;8.80;99.90;;;;;;5089448;28;20591;-80
2024/01/25 01:31:42;;;;;;;0.30;0.20;;;8.80;99.90;;;;;;5090070;28;20282;-79
2024/01/25 01:34:08;;;;;;;0.63;0.63;;;8.90;99.90;;;;;;5088900;28;20433;-79
2024/01/25 01:36:33;;;;;;;0.30;0.20;;;8.90;99.90;;;;;;5088333;28;20207;-80
2024/01/25 01:38:59;;;;;;;0.30;0.20;;;8.90;99.90;;;;;;5088908;28;20447;-80
2024/01/25 01:41:25;;;;;;;0.30;0.20;;;8.90;99.90;;;;;;5090032;28;20190;-79
2024/01/25 01:43:54;;;;;;;0.30;0.20;;;8.90;99.90;;;;;;5089731;28;20275;-79
2024/01/25 01:46:40;;;;;;;0.30;0.20;;;9.00;99.90;;;;;;5090019;28;20191;-80
2024/01/25 01:49:11;;;;;;;0.88;0.88;;;9.00;99.90;;;;;;5087508;28;20212;-79
2024/01/25 01:51:38;;;;;;;0.30;0.20;;;9.00;99.90;;;;;;5088653;28;20195;-80
2024/01/25 01:54:07;;;;;;;0.30;0.20;;;9.00;99.90;;;;;;5092240;28;20196;-79
2024/01/25 01:56:33;;;;;;;0.30;0.20;;;9.10;99.90;;;;;;5094129;28;20172;-79
2024/01/25 01:59:00;;;;;;;0.30;0.20;;;9.10;99.90;;;;;;5092862;28;20226;-80
2024/01/25 02:01:28;;;;;;;0.30;0.20;;;9.10;99.90;;;;;;5092521;28;20187;-79
2024/01/25 02:03:54;;;;;;;0.30;0.20;;;9.20;99.90;;;;;;5093263;28;20219;-80
2024/01/25 02:06:20;;;;;;;0.30;0.20;;;9.20;99.90;;;;;;5092428;28;20176;-79
2024/01/25 02:08:48;;;;;;;0.30;0.20;;;9.20;99.90;;;;;;5093432;28;20481;-79
2024/01/25 02:11:14;;;;;;;0.30;0.20;;;9.20;99.90;;;;;;5093505;28;20740;-80
2024/01/25 02:13:39;;;;;;;0.30;0.20;;;9.30;99.90;;;;;;5093287;28;20295;-79
2024/01/25 02:16:07;;;;;;;0.30;0.20;;;9.30;99.90;;;;;;5092027;28;20278;-79
2024/01/25 02:18:33;;;;;;;0.30;0.20;;;9.30;99.90;;;;;;5093030;28;20230;-80
2024/01/25 02:20:59;;;;;;;0.30;0.20;;;9.30;99.90;;;;;;5092130;28;20179;-80
2024/01/25 02:23:25;;;;;;;0.30;0.20;;;9.40;99.90;;;;;;5092106;28;20200;-79
2024/01/25 02:25:51;;;;;;;0.30;0.20;;;9.40;99.90;;;;;;5093393;28;20195;-79
2024/01/25 02:28:16;;;;;;;0.30;0.20;;;9.40;99.90;;;;;;5093199;28;20718;-80
2024/01/25 02:30:42;;;;;;;0.30;0.20;;;9.50;99.90;;;;;;5093564;28;20183;-80
2024/01/25 02:33:08;;;;;;;0.30;0.20;;;9.50;99.90;;;;;;5091208;28;20734;-79
2024/01/25 02:35:34;;;;;;;0.30;0.20;;;9.50;99.90;;;;;;5091743;28;20169;-80
2024/01/25 02:37:59;;;;;;;0.30;0.20;;;9.60;99.90;;;;;;5092005;28;20538;-80
2024/01/25 02:40:25;;;;;;;0.30;0.30;;;9.60;99.90;;;;;;5093115;28;20226;-80
2024/01/25 02:42:51;;;;;;;0.30;0.20;;;9.60;99.90;;;;;;5091390;28;20938;-80
2024/01/25 02:45:17;;;;;;;0.30;0.20;;;9.60;99.90;;;;;;5092848;28;20516;-79
2024/01/25 02:47:42;;;;;;;0.30;0.20;;;9.60;99.90;;;;;;5091634;28;20230;-80
2024/01/25 02:50:08;;;;;;;0.30;0.20;;;9.60;99.90;;;;;;5091180;28;20176;-79
2024/01/25 02:52:34;;;;;;;0.30;0.20;;;9.60;99.90;;;;;;5092738;28;20661;-79
2024/01/25 02:55:00;;;;;;;0.30;0.20;;;9.60;99.90;;;;;;5092784;28;20200;-80
2024/01/25 02:57:26;;;;;;;0.30;0.20;;;9.60;99.90;;;;;;5092565;28;20284;-79
2024/01/25 02:59:52;;;;;;;0.30;0.20;;;9.60;99.90;;;;;;5092249;28;20260;-81
2024/01/25 03:02:19;;;;;;;0.30;0.20;;;9.70;99.90;;;;;;5091580;28;20184;-80
2024/01/25 03:04:48;;;;;;;0.30;0.30;;;9.70;99.90;;;;;;5090736;28;20186;-79
2024/01/25 03:07:14;;;;;;;0.30;0.20;;;9.70;99.90;;;;;;5092264;28;20551;-79
2024/01/25 03:09:39;;;;;;;0.30;0.20;;;9.70;99.90;;;;;;5090233;28;20240;-80
2024/01/25 03:12:05;;;;;;;0.30;0.20;;;9.70;99.90;;;;;;5091132;28;20421;-80
2024/01/25 03:14:31;;;;;;;0.30;0.20;;;9.80;99.90;;;;;;5091951;28;20196;-80
2024/01/25 03:16:57;;;;;;;0.30;0.20;;;9.80;99.90;;;;;;5092806;28;20742;-80
2024/01/25 03:19:25;;;;;;;0.30;0.20;;;9.80;99.90;;;;;;5091640;28;20307;-80
2024/01/25 03:21:51;;;;;;;0.30;0.20;;;9.80;99.90;;;;;;5092774;28;20175;-80
2024/01/25 03:24:17;;;;;;;0.30;0.20;;;9.80;99.90;;;;;;5089317;28;20672;-80
2024/01/25 03:26:43;;;;;;;0.30;0.20;;;9.80;99.90;;;;;;5092370;28;20180;-80
2024/01/25 03:29:09;;;;;;;0.30;0.20;;;9.80;99.90;;;;;;5091440;28;20794;-80
2024/01/25 03:31:35;;;;;;;0.30;0.20;;;9.90;99.90;;;;;;5092104;28;20413;-80
2024/01/25 03:34:01;;;;;;;0.30;0.30;;;9.80;99.90;;;;;;5091305;28;20188;-79
2024/01/25 03:36:27;;;;;;;0.30;0.20;;;9.80;99.90;;;;;;5090647;28;20209;-79
2024/01/25 03:38:53;;;;;;;0.30;0.20;;;9.80;99.90;;;;;;5089165;28;20260;-80
2024/01/25 03:41:19;;;;;;;0.30;0.20;;;9.80;99.90;;;;;;5091781;28;20425;-78
2024/01/25 03:43:45;;;;;;;0.30;0.20;;;9.80;99.90;;;;;;5091535;28;20196;-79
2024/01/25 03:46:13;;;;;;;0.30;0.20;;;9.70;99.90;;;;;;5091711;28;20233;-79
2024/01/25 03:48:39;;;;;;;0.30;0.20;;;9.70;99.90;;;;;;5091705;28;20204;-80
2024/01/25 03:51:05;;;;;;;0.30;0.20;;;9.70;99.90;;;;;;5090003;28;20679;-79
2024/01/25 03:53:31;;;;;;;0.30;0.20;;;9.60;99.90;;;;;;5091376;28;20979;-79
2024/01/25 03:55:56;;;;;;;0.30;0.20;;;9.60;99.90;;;;;;5091239;28;20180;-80
2024/01/25 03:58:22;;;;;;;0.30;0.27;;;9.50;99.90;;;;;;5091331;28;20189;-79
2024/01/25 04:00:48;;;;;;;0.30;0.20;;;9.50;99.90;;;;;;5091225;28;20180;-79
2024/01/25 04:03:14;;;;;;;0.30;0.20;;;9.50;99.90;;;;;;5091067;28;20426;-80
2024/01/25 04:05:39;;;;;;;0.30;0.20;;;9.50;99.90;;;;;;5089825;28;20622;-79
2024/01/25 04:08:06;;;;;;;0.30;0.20;;;9.40;99.90;;;;;;5089792;28;20239;-79
2024/01/25 04:10:32;;;;;;;0.30;0.20;;;9.40;99.90;;;;;;5091301;28;20254;-79
2024/01/25 04:13:00;;;;;;;0.30;0.20;;;9.40;99.90;;;;;;5091125;28;20661;-79
2024/01/25 04:15:25;;;;;;;0.30;0.20;;;9.40;99.90;;;;;;5089313;28;20216;-80
2024/01/25 04:17:53;;;;;;;0.30;0.20;;;9.40;99.90;;;;;;5091005;28;20231;-79
2024/01/25 04:20:18;;;;;;;0.30;0.20;;;9.30;99.90;;;;;;5091027;28;20561;-79
2024/01/25 04:22:44;;;;;;;0.30;0.20;;;9.40;99.90;;;;;;5091254;28;20193;-79
2024/01/25 04:25:10;;;;;;;0.30;0.20;;;9.30;99.90;;;;;;5090310;28;20180;-80
2024/01/25 04:27:38;;;;;;;0.30;0.20;;;9.40;99.90;;;;;;5090330;28;20183;-79
2024/01/25 04:30:05;;;;;;;0.30;0.20;;;9.40;99.90;;;;;;5090943;28;20168;-79
2024/01/25 04:32:30;;;;;;;0.30;0.20;;;9.40;99.90;;;;;;5090648;28;20770;-80
2024/01/25 04:34:56;;;;;;;0.30;0.30;;;9.40;99.90;;;;;;5088852;28;20267;-80
2024/01/25 04:37:22;;;;;;;0.30;0.20;;;9.40;99.90;;;;;;5090557;28;20214;-81
2024/01/25 04:39:48;;;;;;;0.30;0.20;;;9.40;99.90;;;;;;5090019;28;20212;-80
2024/01/25 04:42:14;;;;;;;0.30;0.20;;;9.40;99.90;;;;;;5090658;28;20183;-81
2024/01/25 04:44:39;;;;;;;0.30;0.20;;;9.50;99.90;;;;;;5088969;28;20208;-86
2024/01/25 04:47:05;;;;;;;0.30;0.20;;;9.40;99.90;;;;;;5090371;28;20504;-85
2024/01/25 04:49:31;;;;;;;0.30;0.20;;;9.40;99.90;;;;;;5086094;28;20235;-82
2024/01/25 04:51:56;;;;;;;0.30;0.20;;;9.40;99.90;;;;;;5088552;28;20222;-84
2024/01/25 04:54:22;;;;;;;0.30;0.20;;;9.50;99.90;;;;;;5086906;28;20203;-80
2024/01/25 04:56:48;;;;;;;0.30;0.20;;;9.50;99.90;;;;;;5088410;28;20173;-80
2024/01/25 04:59:13;;;;;;;0.30;0.20;;;9.50;99.90;;;;;;5087520;28;20269;-81
2024/01/25 05:01:39;;;;;;;0.30;0.20;;;9.50;99.90;;;;;;5090227;28;20188;-80
2024/01/25 05:04:05;;;;;;;0.30;0.20;;;9.40;99.90;;;;;;5088326;28;20204;-83
2024/01/25 05:06:31;;;;;;;0.30;0.20;;;9.40;99.90;;;;;;5090111;28;20204;-84
2024/01/25 05:08:56;;;;;;;0.30;0.20;;;9.40;99.90;;;;;;5088096;28;20209;-80
2024/01/25 05:11:22;;;;;;;0.30;0.20;;;9.30;99.90;;;;;;5088102;28;20536;-81
2024/01/25 05:13:48;;;;;;;0.30;0.20;;;9.30;99.90;;;;;;5089856;28;20603;-80
2024/01/25 05:16:14;;;;;;;0.30;0.20;;;9.30;99.90;;;;;;5089394;28;20401;-84
2024/01/25 05:18:40;;;;;;;0.30;0.20;;;9.30;99.90;;;;;;5088368;28;20557;-84
2024/01/25 05:21:06;;;;;;;0.30;0.20;;;9.30;99.90;;;;;;5089152;28;20293;-81
2024/01/25 05:23:32;;;;;;;0.30;0.20;;;9.20;99.90;;;;;;5088677;28;20254;-80
2024/01/25 05:25:57;;;;;;;0.30;0.30;;;9.20;99.90;;;;;;5087259;28;20176;-80
2024/01/25 05:28:24;;;;;;;2.00;1.47;;;9.20;99.90;;;;;;5084210;28;20192;-81
2024/01/25 05:30:50;;;;;;;0.30;0.20;;;9.10;99.90;;;;;;5089060;28;20256;-84
2024/01/25 05:33:15;;;;;;;0.30;0.20;;;9.20;99.90;;;;;;5088308;28;20627;-83
2024/01/25 05:35:41;;;;;;;0.30;0.20;;;9.10;99.90;;;;;;5087860;28;20788;-82
2024/01/25 05:38:07;;;;;;;0.30;0.20;;;9.10;99.90;;;;;;5089175;28;20606;-81
2024/01/25 05:40:32;;;;;;;0.30;0.30;;;9.10;99.90;;;;;;5087998;28;20514;-79
2024/01/25 05:42:59;;;;;;;0.30;0.20;;;9.20;99.90;;;;;;5086913;28;20682;-84
2024/01/25 05:45:26;;;;;;;0.30;0.20;;;9.20;99.90;;;;;;5084463;28;20709;-83
2024/01/25 05:47:52;;;;;;;0.30;0.20;;;9.20;99.90;;;;;;5088376;28;20201;-79
2024/01/25 05:50:17;;;;;;;0.30;0.20;;;9.20;99.90;;;;;;5086703;28;20475;-79
2024/01/25 05:52:43;;;;;;;0.30;0.20;;;9.20;99.90;;;;;;5085803;28;20781;-81
2024/01/25 05:55:09;;;;;;;0.30;0.20;;;9.20;99.90;;;;;;5086614;28;20444;-79
2024/01/25 05:57:36;;;;;;;0.40;0.40;;;9.30;99.90;;;;;;5083922;28;20191;-78
2024/01/25 06:00:03;;;;;;;0.30;0.20;;;9.30;99.90;;;;;;5089863;28;20897;-79
2024/01/25 06:02:28;;;;;;;0.30;0.20;;;9.30;99.90;;;;;;5087409;28;20165;-83
2024/01/25 06:04:58;;;;;;;0.30;0.20;;;9.30;99.90;;;;;;5084964;28;20187;-83
2024/01/25 06:07:23;;;;;;;0.30;0.20;;;9.30;99.90;;;;;;5086889;28;20641;-83
2024/01/25 06:09:49;;;;;;;0.30;0.20;;;9.30;99.90;;;;;;5116439;28;20310;-79
2024/01/25 06:12:15;;;;;;;0.30;0.20;;;9.30;99.90;;;;;;5087144;28;20192;-79
2024/01/25 06:14:40;;;;;;;0.30;0.20;;;9.30;99.90;;;;;;5085259;28;20203;-83
2024/01/25 06:17:06;;;;;;;0.30;0.20;;;9.30;99.90;;;;;;5084472;28;20222;-79
2024/01/25 06:19:33;;;;;;;0.30;0.20;;;9.30;99.90;;;;;;5084931;28;20251;-79
2024/01/25 06:21:59;;;;;;;0.30;0.20;;;9.40;99.90;;;;;;5086684;28;20180;-82
2024/01/25 06:24:24;;;;;;;0.30;0.20;;;9.40;99.90;;;;;;5084119;28;20208;-79
2024/01/25 06:26:50;;;;;;;0.30;0.20;;;9.50;99.90;;;;;;5084585;28;20180;-83
2024/01/25 06:29:15;;;;;;;0.30;0.20;;;9.50;99.90;;;;;;5085739;28;20214;-83
2024/01/25 06:31:43;;;;;;;0.30;0.20;;;9.50;99.90;;;;;;5088724;28;20230;-82
2024/01/25 06:34:09;;;;;;;0.30;0.20;;;9.50;99.90;;;;;;5086290;28;20210;-79
2024/01/25 06:36:35;;;;;;;0.30;0.20;;;9.60;99.90;;;;;;5073175;28;20583;-82
2024/01/25 06:39:00;;;;;;;0.30;0.20;;;9.60;99.90;;;;;;5074992;28;20582;-82
2024/01/25 06:41:26;;;;;;;0.30;0.30;;;9.60;99.90;;;;;;5083646;28;20557;-79
2024/01/25 06:43:52;;;;;;;0.30;0.20;;;9.60;99.90;;;;;;5085988;28;20201;-79
2024/01/25 06:46:17;;;;;;;0.60;0.60;;;9.70;99.90;;;;;;5086122;28;20855;-83
2024/01/25 06:48:43;;;;;;;0.30;0.20;;;9.70;99.90;;;;;;5085671;28;20205;-83
2024/01/25 06:51:09;;;;;;;0.30;0.20;;;9.70;99.90;;;;;;5085528;28;20572;-83
2024/01/25 06:53:34;;;;;;;0.30;0.20;;;9.70;99.90;;;;;;5084522;28;20465;-83
2024/01/25 06:56:00;;;;;;;0.40;0.40;;;9.80;99.90;;;;;;5086614;28;20192;-79
2024/01/25 06:58:26;;;;;;;0.30;0.20;;;9.80;99.90;;;;;;5083314;28;20749;-79
2024/01/25 07:00:52;;;;;;;4.97;2.23;;;9.80;99.90;;;;;;5083986;28;20187;-79
2024/01/25 07:03:18;;;;;;;0.30;0.20;;;9.80;99.90;;;;;;5081853;28;20824;-82
2024/01/25 07:05:44;;;;;;;0.30;0.20;;;9.80;99.90;;;;;;5081628;28;20210;-79
2024/01/25 07:08:13;;;;;;;0.30;0.20;;;9.90;99.90;;;;;;5081604;28;20204;-79
2024/01/25 07:10:42;;;;;;;0.30;0.20;;;9.90;99.90;;;;;;5080494;28;20777;-83
2024/01/25 07:13:08;;;;;;;0.30;0.20;;;9.90;99.90;;;;;;5082824;28;20220;-80
2024/01/25 07:15:34;;;;;;;0.30;0.20;;;10.00;99.90;;;;;;5084034;28;20264;-80
2024/01/25 07:18:00;;;;;;;0.30;0.20;;;10.00;99.90;;;;;;5084737;28;20192;-80
2024/01/25 07:20:25;;;;;;;0.30;0.20;;;10.00;99.90;;;;;;5084699;28;20229;-82
2024/01/25 07:22:51;;;;;;;0.30;0.20;;;10.00;99.90;;;;;;5084693;28;20266;-80
2024/01/25 07:25:17;;;;;;;0.30;0.20;;;10.00;99.90;;;;;;5085912;28;20192;-80
2024/01/25 07:27:46;;;;;;;0.30;0.20;;;10.00;99.90;;;;;;5085304;28;20283;-83
2024/01/25 07:30:13;;;;;;;0.30;0.20;;;10.10;99.90;;;;;;5085565;28;20658;-80
2024/01/25 07:32:41;;;;;;;0.30;0.20;;;10.10;99.90;;;;;;5085212;28;20553;-80
2024/01/25 07:35:10;;;;;;;0.30;0.20;;;10.10;99.90;;;;;;5085339;28;20195;-83
2024/01/25 07:37:36;;;;;;;0.30;0.20;;;10.20;99.90;;;;;;5084223;28;20195;-82
2024/01/25 07:40:06;;;;;;;0.30;0.20;;;10.20;99.90;;;;;;5086127;28;20295;-79
2024/01/25 07:42:32;;;;;;;0.30;0.20;;;10.20;99.90;;;;;;5084763;28;20595;-83
2024/01/25 07:44:58;;;;;;;0.30;0.20;;;10.20;99.90;;;;;;5085807;28;20199;-79
2024/01/25 07:47:24;;;;;;;0.30;0.20;;;10.20;99.90;;;;;;5090421;28;20935;-82
2024/01/25 07:49:49;;;;;;;0.30;0.30;;;10.20;99.90;;;;;;5087928;28;20436;-85
2024/01/25 07:52:15;;;;;;;0.30;0.20;;;10.20;99.90;;;;;;5088533;28;20185;-85
2024/01/25 07:54:41;;;;;;;0.30;0.20;;;10.30;99.90;;;;;;5086175;28;20200;-82
2024/01/25 07:57:06;;;;;;;0.30;0.20;;;10.30;99.90;;;;;;5088708;28;20674;-85
2024/01/25 07:59:32;;;;;;;0.30;0.30;;;10.30;99.90;;;;;;5086371;28;20554;-79
2024/01/25 08:01:58;;;;;;;0.30;0.20;;;10.40;99.90;;;;;;5086626;28;20676;-81
2024/01/25 08:04:23;;;;;;;1.33;1.07;;;10.40;99.90;;;;;;5081573;28;20204;-79
2024/01/25 08:06:49;;;;;;;0.30;0.20;;;10.40;99.90;;;;;;5071110;28;20226;-80
2024/01/25 08:09:15;;;;;;;0.30;0.20;;;10.40;99.90;;;;;;5078541;28;20229;-85
2024/01/25 08:11:41;;;;;;;0.40;0.40;;;10.40;99.90;;;;;;5081136;28;20251;-83
2024/01/25 08:14:07;;;;;;;0.30;0.20;;;10.50;99.90;;;;;;5084024;28;20707;-83
2024/01/25 08:16:34;;;;;;;0.30;0.20;;;10.50;99.90;;;;;;5076931;28;20245;-79
2024/01/25 08:19:00;;;;;;;0.30;0.20;;;10.60;99.90;;;;;;5069234;28;20229;-79
2024/01/25 08:21:26;;;;;;;0.30;0.20;;;10.60;99.90;;;;;;5072017;28;20250;-80
2024/01/25 08:23:52;;;;;;;0.30;0.20;;;10.60;99.90;;;;;;5071700;28;20461;-79
2024/01/25 08:26:17;;;;;;;0.30;0.30;;;10.60;99.90;;;;;;5083995;28;20187;-79
2024/01/25 08:28:44;;;;;;;0.30;0.20;;;10.70;99.90;;;;;;5081743;28;20280;-83
2024/01/25 08:31:10;;;;;;;3.08;2.80;;;10.70;99.90;;;;;;5076880;28;20193;-79
2024/01/25 08:33:36;;;;;;;0.30;0.20;;;10.80;99.90;;;;;;5070399;28;20209;-84
2024/01/25 08:36:02;;;;;;;0.30;0.20;;;10.90;99.90;;;;;;5084338;28;20187;-82
2024/01/25 08:38:28;;;;;;;0.30;0.20;;;11.00;99.90;;;;;;5083925;28;20201;-79
2024/01/25 08:40:54;;;;;;;0.30;0.20;;;11.00;99.90;;;;;;5084460;28;20180;-79
2024/01/25 08:43:19;;;;;;;0.30;0.20;;;11.10;99.90;;;;;;5088179;28;20202;-80
2024/01/25 08:45:45;;;;;;;0.30;0.23;;;11.10;99.90;;;;;;5083876;28;20196;-79
2024/01/25 08:48:13;;;;;;;0.30;0.30;;;11.20;99.90;;;;;;5086377;28;20211;-85
2024/01/25 08:50:38;;;;;;;0.67;0.67;;;11.50;99.90;;;;;;5086014;28;20183;-83
2024/01/25 08:53:05;;;;;;;0.50;0.50;;;12.10;99.90;;;;;;5086689;28;20425;-79
2024/01/25 08:55:31;;;;;;;0.50;0.47;;;13.10;99.90;;;;;;5084689;28;20185;-80
2024/01/25 08:57:56;;;;;;;0.53;0.50;;;14.00;99.90;;;;;;5082889;28;20802;-83
2024/01/25 09:00:22;;;;;;;2.20;2.10;;;14.80;99.90;;;;;;5077363;28;21062;-80
2024/01/25 09:02:48;;;;;;;2.20;2.10;;;15.70;99.90;;;;;;5076960;28;20490;-80
2024/01/25 09:05:14;;;;;;;0.40;0.30;;;16.50;99.90;;;;;;5067410;28;20764;-83
2024/01/25 09:07:41;;;;;;;0.40;0.40;;;17.30;99.90;;;;;;5099591;28;20539;-80
2024/01/25 09:10:08;;;;;;;0.40;0.20;;;18.20;99.90;;;;;;5080476;28;20781;-80
2024/01/25 09:12:37;;;;;;;0.30;0.23;;;19.00;99.10;;;;;;5080544;28;20527;-83
2024/01/25 09:15:03;;;;;;;0.40;0.30;;;19.50;97.20;;;;;;5080074;28;20427;-83
2024/01/25 09:17:29;;;;;;;0.40;0.20;;;19.80;96.00;;;;;;5075639;28;20435;-80
2024/01/25 09:19:58;;;;;;;0.40;0.20;;;20.20;95.50;;;;;;5074246;28;20862;-83
2024/01/25 09:22:24;;;;;;;0.40;0.20;;;20.60;94.20;;;;;;5079898;28;20177;-84
2024/01/25 09:24:50;;;;;;;0.40;0.40;;;20.70;93.30;;;;;;5080289;28;20421;-83
2024/01/25 09:27:15;;;;;;;0.60;0.60;;;20.80;92.40;;;;;;5080204;28;20196;-80
2024/01/25 09:29:42;;;;;;;0.40;0.20;;;20.90;91.80;;;;;;5080552;28;20685;-80
2024/01/25 09:32:08;;;;;;;0.40;0.30;;;21.10;91.20;;;;;;5083969;28;20185;-81
2024/01/25 09:34:38;;;;;;;0.40;0.30;;;21.20;90.80;;;;;;5081627;28;20456;-84
2024/01/25 09:37:04;;;;;;;0.40;0.20;;;21.50;90.50;;;;;;5082769;28;21240;-81
2024/01/25 09:39:32;;;;;;;0.40;0.30;;;21.60;90.00;;;;;;5082283;28;20496;-81
2024/01/25 09:41:57;;;;;;;0.33;0.20;;;21.80;88.10;;;;;;5080464;28;20412;-83
2024/01/25 09:44:23;;;;;;;0.40;0.30;;;21.60;87.10;;;;;;5101573;28;20452;-80
2024/01/25 09:46:50;;;;;;;1.13;1.13;;;21.30;86.70;;;;;;5083133;28;20443;-80
2024/01/25 09:49:16;;;;;;;0.40;0.20;;;20.90;87.70;;;;;;5070453;28;20558;-80
2024/01/25 09:51:43;;;;;;;0.30;0.20;;;20.60;87.60;;;;;;5082358;28;20491;-83
2024/01/25 09:54:10;;;;;;;0.30;0.20;;;20.20;87.50;;;;;;5079592;28;20235;-80
2024/01/25 09:56:36;;;;;;;0.30;0.20;;;19.90;87.90;;;;;;5079292;28;20563;-80
2024/01/25 09:59:02;;;;;;;0.40;0.20;;;19.10;88.30;;;;;;5080456;28;20472;-80
2024/01/25 10:01:28;;;;;;;0.67;0.67;;;18.50;89.50;;;;;;5085048;28;20881;-82
2024/01/25 10:03:57;;;;;;;0.30;0.20;;;17.90;90.50;;;;;;5084418;28;20567;-82
2024/01/25 10:06:23;;;;;;;0.43;0.43;;;17.30;90.90;;;;;;5076402;28;20439;-79
2024/01/25 10:08:49;;;;;;;0.40;0.20;;;16.80;91.00;;;;;;5062741;28;20480;-79
2024/01/25 10:11:16;;;;;;;0.30;0.20;;;16.40;92.00;;;;;;5073025;28;20512;-79
2024/01/25 10:13:43;;;;;;;0.40;0.20;;;16.00;92.60;;;;;;5080059;28;20561;-83
2024/01/25 10:16:16;;;;;;;0.30;0.20;;;15.70;93.10;;;;;;5081989;28;21161;-83
2024/01/25 10:18:43;;;;;;;0.40;0.20;;;15.40;93.60;;;;;;5076962;28;20445;-83
2024/01/25 10:21:14;;;;;;;0.30;0.20;;;15.20;94.10;;;;;;5083148;28;20421;-83
2024/01/25 10:23:40;;;;;;;0.40;0.27;;;15.00;94.20;;;;;;5087154;28;20836;-83
2024/01/25 10:26:08;;;;;;;0.30;0.20;;;14.80;94.80;;;;;;5086159;28;20465;-79
2024/01/25 10:28:34;;;;;;;0.40;0.20;;;14.60;95.30;;;;;;5085310;28;20456;-83
2024/01/25 10:31:02;;;;;;;0.30;0.20;;;14.40;95.30;;;;;;5085405;28;20481;-79
2024/01/25 10:33:28;;;;;;;0.47;0.47;;;14.30;95.70;;;;;;5082165;28;20622;-83
2024/01/25 10:36:03;;;;;;;0.30;0.20;;;14.10;96.00;;;;;;5078030;28;20405;-83
2024/01/25 10:38:35;;;;;;;0.50;0.50;;;14.10;96.30;;;;;;5085348;28;20443;-83
2024/01/25 10:41:08;;;;;;;0.30;0.20;;;14.00;96.60;;;;;;5087225;28;20405;-79
2024/01/25 10:43:33;;;;;;;0.40;0.20;;;14.00;96.60;;;;;;5086221;28;20960;-83
2024/01/25 10:46:00;;;;;;;0.40;0.20;;;13.90;96.90;;;;;;5084345;28;20425;-79
2024/01/25 10:48:26;;;;;;;0.40;0.20;;;13.80;96.80;;;;;;5084582;28;20208;-79
2024/01/25 10:50:56;;;;;;;0.40;0.20;;;13.80;97.10;;;;;;5080527;28;20422;-79
2024/01/25 10:53:23;;;;;;;0.40;0.30;;;13.80;97.20;;;;;;5082049;28;20439;-83
2024/01/25 10:55:49;;;;;;;4.33;4.10;;;13.80;96.90;;;;;;5081707;28;20432;-83
2024/01/25 10:58:16;;;;;;;0.30;0.20;;;13.90;97.00;;;;;;5085122;28;20433;-83
2024/01/25 11:00:50;;;;;;;0.30;0.20;;;13.90;97.00;;;;;;5084216;28;20747;-79
2024/01/25 11:03:18;;;;;;;0.30;0.20;;;13.90;97.00;;;;;;5082756;28;20418;-82
2024/01/25 11:05:45;;;;;;;0.30;0.20;;;13.90;96.50;;;;;;5084966;28;20715;-79
2024/01/25 11:08:21;;;;;;;1.33;1.23;;;13.90;96.50;;;;;;5085387;28;20530;-83
2024/01/25 11:10:54;;;;;;;0.53;0.53;;;14.00;96.60;;;;;;5084335;28;20489;-83
2024/01/25 11:13:32;;;;;;;0.30;0.20;;;13.90;95.60;;;;;;5080631;28;20604;-79
2024/01/25 11:15:57;;;;;;;0.30;0.20;;;13.90;95.70;;;;;;5083799;28;20539;-79
2024/01/25 11:18:26;;;;;;;0.30;0.20;;;13.90;96.00;;;;;;5087697;28;20591;-79
2024/01/25 11:20:52;;;;;;;0.30;0.20;;;13.90;96.30;;;;;;5085385;28;20227;-79
2024/01/25 11:23:17;;;;;;;0.30;0.20;;;13.90;96.00;;;;;;5076050;28;20445;-79
2024/01/25 11:25:48;;;;;;;0.30;0.20;;;13.80;95.90;;;;;;5082072;28;20723;-82
2024/01/25 11:28:17;;;;;;;0.40;0.20;;;13.80;96.00;;;;;;5081996;28;20322;-83
2024/01/25 11:30:44;;;;;;;0.30;0.20;;;13.70;96.30;;;;;;5077147;28;20433;-83
2024/01/25 11:33:11;;;;;;;0.40;0.20;;;13.70;96.20;;;;;;5082589;28;20444;-83
2024/01/25 11:35:37;;;;;;;0.30;0.20;;;13.50;96.30;;;;;;5083247;28;20440;-83
2024/01/25 11:38:03;;;;;;;0.40;0.20;;;13.40;96.50;;;;;;5076402;28;20457;-79
2024/01/25 11:40:31;;;;;;;0.30;0.20;;;13.30;96.70;;;;;;5069782;28;20479;-79
2024/01/25 11:42:57;;;;;;;0.30;0.20;;;13.20;96.40;;;;;;5069786;28;20452;-83
2024/01/25 11:45:22;;;;;;;0.40;0.40;;;13.20;97.00;;;;;;5085215;28;20789;-83
2024/01/25 11:47:49;;;;;;;0.30;0.20;;;13.10;96.90;;;;;;5085731;28;20201;-79
2024/01/25 11:50:15;;;;;;;0.30;0.20;;;13.20;97.00;;;;;;5080000;28;21051;-83
2024/01/25 11:52:40;;;;;;;0.30;0.20;;;13.20;97.20;;;;;;5081259;28;20452;-79
2024/01/25 11:55:09;;;;;;;0.30;0.20;;;13.10;97.20;;;;;;5075650;28;20714;-79
2024/01/25 11:57:37;;;;;;;0.30;0.20;;;13.00;97.30;;;;;;5081049;28;20265;-79
2024/01/25 12:00:05;;;;;;;0.30;0.20;;;13.00;97.60;;;;;;5077950;28;20659;-79
2024/01/25 12:02:32;;;;;;;0.30;0.30;;;12.80;97.60;;;;;;5072902;28;20434;-79
2024/01/25 12:04:58;;;;;;;0.30;0.20;;;12.80;98.10;;;;;;5082332;28;20536;-79
2024/01/25 12:07:23;;;;;;;0.30;0.20;;;12.70;98.40;;;;;;5074364;28;20785;-79
2024/01/25 12:10:14;;;;;;;0.30;0.20;;;12.80;98.60;;;;;;5076164;28;20462;-82
2024/01/25 12:12:40;;;;;;;0.30;0.20;;;12.70;98.20;;;;;;5080834;28;20261;-83
2024/01/25 12:15:07;;;;;;;0.30;0.20;;;12.70;98.40;;;;;;5074958;28;20425;-79
2024/01/25 12:17:36;;;;;;;2.00;1.90;;;12.70;98.50;;;;;;5080316;28;20703;-83
2024/01/25 12:20:02;;;;;;;0.30;0.20;;;12.70;98.50;;;;;;5084036;28;20968;-79
2024/01/25 12:22:28;;;;;;;4.63;2.10;;;12.70;98.50;;;;;;5081961;28;20508;-81
2024/01/25 12:24:57;;;;;;;30.67;4.37;;;12.80;98.30;;;;;;5082428;28;20433;-79
2024/01/25 12:27:25;;;;;;;0.30;0.20;;;12.70;97.90;;;;;;5076514;28;20417;-79
2024/01/25 12:29:53;;;;;;;0.30;0.20;;;12.60;97.90;;;;;;5096844;28;20941;-79
2024/01/25 12:32:19;;;;;;;0.30;0.20;;;12.60;97.80;;;;;;5081230;28;20559;-79
2024/01/25 12:35:00;;;;;;;0.30;0.20;;;12.60;98.00;;;;;;5077171;28;20946;-83
2024/01/25 12:37:26;;;;;;;0.30;0.30;;;12.50;98.00;;;;;;5078474;28;20520;-79
2024/01/25 12:39:53;;;;;;;0.30;0.20;;;12.50;98.20;;;;;;5073339;28;20481;-79
2024/01/25 12:42:20;;;;;;;0.30;0.20;;;12.50;98.40;;;;;;5072086;28;20417;-83
2024/01/25 12:44:47;;;;;;;0.30;0.20;;;12.60;98.60;;;;;;5077946;28;20539;-78
2024/01/25 12:47:13;;;;;;;0.30;0.20;;;12.60;98.60;;;;;;5076725;28;20611;-79
2024/01/25 12:49:42;;;;;;;0.30;0.20;;;12.60;98.60;;;;;;5077248;28;20453;-83